createdAt,value
2023-02-14T00:03:53.049Z,103337.59
2023-02-14T00:08:58.278Z,103341.50
2023-02-14T00:14:19.678Z,103336.28
2023-02-14T00:19:24.286Z,103336.53
2023-02-14T00:24:29.768Z,103330.59
2023-02-14T00:29:34.249Z,103329.53
2023-02-14T00:34:38.493Z,103330.09
2023-02-14T00:39:43.597Z,103326.88
2023-02-14T00:44:47.387Z,103319.25
2023-02-14T00:49:51.129Z,103316.56
2023-02-14T00:54:59.119Z,103313.00
2023-02-14T01:00:03.120Z,103310.06
2023-02-14T01:05:07.541Z,103310.34
2023-02-14T01:10:14.523Z,103307.44
2023-02-14T01:15:18.469Z,103305.13
2023-02-14T01:20:22.559Z,103312.47
2023-02-14T01:25:28.070Z,103309.06
2023-02-14T01:30:32.178Z,103305.50
2023-02-14T01:35:38.807Z,103311.63
2023-02-14T01:40:45.497Z,103317.06
2023-02-14T01:45:49.356Z,103321.37
2023-02-14T01:50:56.067Z,103323.41
2023-02-14T01:56:05.658Z,103315.88
2023-02-14T02:01:18.695Z,103322.38
2023-02-14T02:06:27.199Z,103327.44
2023-02-14T02:11:33.199Z,103321.25
2023-02-14T02:17:01.033Z,103318.09
2023-02-14T02:22:39.415Z,103309.41
2023-02-14T02:28:10.632Z,103304.66
2023-02-14T02:33:45.192Z,103307.09
2023-02-14T02:39:05.564Z,103299.47
2023-02-14T02:44:17.765Z,103299.12
2023-02-14T02:49:51.929Z,103288.97
2023-02-14T02:55:04.582Z,103287.03
2023-02-14T03:00:12.346Z,103284.84
2023-02-14T03:05:17.417Z,103286.19
2023-02-14T03:10:26.217Z,103285.31
2023-02-14T03:15:53.043Z,103285.16
2023-02-14T03:21:04.687Z,103299.06
2023-02-14T03:26:15.794Z,103289.22
2023-02-14T03:31:28.688Z,103279.22
2023-02-14T03:36:39.141Z,103284.34
2023-02-14T03:41:49.326Z,103283.06
2023-02-14T03:46:59.081Z,103288.19
2023-02-14T03:52:05.623Z,103298.97
2023-02-14T03:57:21.838Z,103285.28
2023-02-14T04:02:32.668Z,103294.28
2023-02-14T04:07:46.318Z,103284.22
2023-02-14T04:12:51.808Z,103294.31
2023-02-14T04:18:13.390Z,103291.37
2023-02-14T04:23:17.127Z,103291.03
2023-02-14T04:28:22.325Z,103295.06
2023-02-14T04:33:26.041Z,103286.16
2023-02-14T04:38:29.938Z,103295.84
2023-02-14T04:43:35.020Z,103293.84
2023-02-14T04:48:38.756Z,103292.75
2023-02-14T04:53:43.239Z,103285.13
2023-02-14T04:58:48.318Z,103278.94
2023-02-14T05:03:52.100Z,103283.87
2023-02-14T05:08:56.744Z,103276.94
2023-02-14T05:14:01.910Z,103275.84
2023-02-14T05:19:05.628Z,103282.97
2023-02-14T05:24:11.527Z,103275.16
2023-02-14T05:29:16.653Z,103277.72
2023-02-14T05:34:21.734Z,103266.06
2023-02-14T05:39:25.694Z,103279.94
2023-02-14T05:44:30.948Z,103273.19
2023-02-14T05:49:36.168Z,103280.47
2023-02-14T05:54:39.989Z,103279.41
2023-02-14T05:59:45.081Z,103275.22
2023-02-14T06:04:49.048Z,103276.69
2023-02-14T06:09:53.089Z,103281.59
2023-02-14T06:14:58.236Z,103290.03
2023-02-14T06:20:02.014Z,103285.81
2023-02-14T06:25:06.891Z,103287.28
2023-02-14T06:30:13.889Z,103281.81
2023-02-14T06:35:17.736Z,103286.75
2023-02-14T06:40:21.959Z,103293.16
2023-02-14T06:45:27.071Z,103290.94
2023-02-14T06:50:30.869Z,103294.81
2023-02-14T06:55:34.606Z,103294.81
2023-02-14T07:00:40.730Z,103290.25
2023-02-14T07:05:45.317Z,103292.06
2023-02-14T07:10:49.073Z,103293.16
2023-02-14T07:15:54.318Z,103287.34
2023-02-14T07:20:58.662Z,103281.50
2023-02-14T07:26:03.217Z,103286.78
2023-02-14T07:31:08.722Z,103295.13
2023-02-14T07:36:13.180Z,103290.56
2023-02-14T07:41:17.034Z,103289.62
2023-02-14T07:46:22.237Z,103291.59
2023-02-14T07:51:25.960Z,103294.47
2023-02-14T07:56:30.064Z,103286.56
2023-02-14T08:01:35.287Z,103293.41
2023-02-14T08:06:39.047Z,103299.94
2023-02-14T08:12:02.751Z,103292.56
2023-02-14T08:17:10.026Z,103297.22
2023-02-14T08:22:13.817Z,103287.47
2023-02-14T08:27:17.639Z,103293.94
2023-02-14T08:32:22.829Z,103296.72
2023-02-14T08:37:26.782Z,103294.81
2023-02-14T08:42:31.115Z,103296.47
2023-02-14T08:47:38.325Z,103289.91
2023-02-14T08:52:43.750Z,103292.47
2023-02-14T08:57:49.333Z,103282.81
2023-02-14T09:02:57.318Z,103274.72
2023-02-14T09:08:03.243Z,103281.13
2023-02-14T09:13:07.432Z,103281.97
2023-02-14T09:18:12.726Z,103273.34
2023-02-14T09:23:16.529Z,103274.31
2023-02-14T09:28:20.264Z,103281.97
2023-02-14T09:33:25.465Z,103273.72
2023-02-14T09:38:29.176Z,103265.00
2023-02-14T09:43:38.145Z,103270.37
2023-02-14T09:48:47.351Z,103260.75
2023-02-14T09:53:58.078Z,103258.47
2023-02-14T09:59:10.918Z,103255.16
2023-02-14T10:04:28.450Z,103246.94
2023-02-14T10:09:47.504Z,103238.69
2023-02-14T10:14:53.135Z,103235.88
2023-02-14T10:20:02.753Z,103237.13
2023-02-14T10:25:15.182Z,103235.31
2023-02-14T10:30:21.469Z,103232.84
2023-02-14T10:35:36.483Z,103225.72
2023-02-14T10:41:06.084Z,103230.28
2023-02-14T10:46:18.204Z,103221.22
2023-02-14T10:51:33.854Z,103219.75
2023-02-14T10:56:43.733Z,103207.28
2023-02-14T11:01:48.627Z,103199.25
2023-02-14T11:06:53.891Z,103194.75
2023-02-14T11:12:00.517Z,103196.72
2023-02-14T11:17:29.155Z,103182.72
2023-02-14T11:22:36.202Z,103187.94
2023-02-14T11:27:40.067Z,103190.16
2023-02-14T11:32:43.805Z,103180.88
2023-02-14T11:37:53.470Z,103179.41
2023-02-14T11:43:13.330Z,103171.59
2023-02-14T11:48:36.576Z,103154.31
2023-02-14T11:53:49.349Z,103157.34
2023-02-14T11:58:59.360Z,103149.84
2023-02-14T12:04:14.873Z,103145.91
2023-02-14T12:09:29.443Z,103122.81
2023-02-14T12:14:35.249Z,103116.66
2023-02-14T12:19:46.064Z,103114.78
2023-02-14T12:25:01.463Z,103108.81
2023-02-14T12:30:12.638Z,103108.88
2023-02-14T12:35:23.082Z,103089.16
2023-02-14T12:40:39.434Z,103088.81
2023-02-14T12:46:04.079Z,103076.22
2023-02-14T12:51:15.239Z,103072.28
2023-02-14T12:56:29.313Z,103062.88
2023-02-14T13:01:58.252Z,103049.63
2023-02-14T13:07:09.931Z,103051.84
2023-02-14T13:12:35.430Z,103037.78
2023-02-14T13:17:44.588Z,103035.28
2023-02-14T13:22:49.927Z,103030.94
2023-02-14T13:27:55.224Z,103024.19
2023-02-14T13:33:04.568Z,103016.22
2023-02-14T13:38:14.016Z,103020.25
2023-02-14T13:43:51.462Z,103017.25
2023-02-14T13:49:02.489Z,103019.69
2023-02-14T13:54:23.876Z,103004.56
2023-02-14T13:59:31.339Z,103006.28
2023-02-14T14:04:37.335Z,102995.84
2023-02-14T14:09:54.821Z,102991.34
2023-02-14T14:15:20.708Z,102982.63
2023-02-14T14:20:46.016Z,102983.06
2023-02-14T14:25:49.780Z,102977.16
2023-02-14T14:30:53.817Z,102977.97
2023-02-14T14:36:02.441Z,102967.88
2023-02-14T14:41:06.929Z,102965.50
2023-02-14T14:46:13.671Z,102958.25
2023-02-14T14:51:24.831Z,102959.09
2023-02-14T14:56:31.762Z,102962.03
2023-02-14T15:01:39.478Z,102960.94
2023-02-14T15:06:44.684Z,102958.97
2023-02-14T15:12:07.251Z,102961.66
2023-02-14T15:17:19.421Z,102959.09
2023-02-14T15:22:29.906Z,102957.44
2023-02-14T15:27:35.064Z,102951.78
2023-02-14T15:32:39.478Z,102949.63
2023-02-14T15:37:45.447Z,102946.13
2023-02-14T15:42:50.630Z,102948.53
2023-02-14T15:47:57.001Z,102945.91
2023-02-14T15:53:06.562Z,102943.81
2023-02-14T15:58:23.497Z,102944.84
2023-02-14T16:03:29.370Z,102931.97
2023-02-14T16:08:36.157Z,102930.94
2023-02-14T16:13:42.011Z,102934.59
2023-02-14T16:18:50.760Z,102943.09
2023-02-14T16:24:14.745Z,102946.34
2023-02-14T16:29:20.933Z,102943.91
2023-02-14T16:34:25.190Z,102938.53
2023-02-14T16:39:30.378Z,102936.69
2023-02-14T16:44:34.449Z,102924.50
2023-02-14T16:49:38.238Z,102933.81
2023-02-14T16:54:44.074Z,102934.41
2023-02-14T16:59:48.218Z,102934.56
2023-02-14T17:04:52.103Z,102938.91
2023-02-14T17:10:02.311Z,102937.97
2023-02-14T17:15:11.771Z,102935.34
2023-02-14T17:20:16.474Z,102939.09
2023-02-14T17:25:21.562Z,102949.88
2023-02-14T17:30:28.128Z,102949.09
2023-02-14T17:35:32.080Z,102956.22
2023-02-14T17:40:37.201Z,102957.56
2023-02-14T17:45:41.003Z,102954.50
2023-02-14T17:50:44.776Z,102955.59
2023-02-14T17:55:49.941Z,102959.19
2023-02-14T18:00:53.693Z,102950.78
2023-02-14T18:05:58.315Z,102948.63
2023-02-14T18:11:05.637Z,102955.75
2023-02-14T18:16:11.709Z,102955.41
2023-02-14T18:21:18.958Z,102957.66
2023-02-14T18:26:24.091Z,102948.16
2023-02-14T18:31:27.930Z,102940.12
2023-02-14T18:36:32.569Z,102937.53
2023-02-14T18:41:37.929Z,102927.34
2023-02-14T18:46:41.727Z,102925.25
2023-02-14T18:51:45.657Z,102933.59
2023-02-14T18:56:50.850Z,102920.34
2023-02-14T19:01:54.649Z,102921.31
2023-02-14T19:06:58.667Z,102904.75
2023-02-14T19:12:03.935Z,102908.41
2023-02-14T19:17:08.241Z,102908.19
2023-02-14T19:22:12.131Z,102915.22
2023-02-14T19:27:17.656Z,102912.41
2023-02-14T19:32:21.521Z,102907.13
2023-02-14T19:37:26.714Z,102907.03
2023-02-14T19:42:31.827Z,102903.31
2023-02-14T19:47:46.632Z,102905.66
2023-02-14T19:52:51.479Z,102909.13
2023-02-14T19:57:57.888Z,102902.16
2023-02-14T20:03:02.006Z,102904.09
2023-02-14T20:08:06.098Z,102898.50
2023-02-14T20:13:11.510Z,102894.22
2023-02-14T20:18:15.514Z,102888.56
2023-02-14T20:23:19.348Z,102882.47
2023-02-14T20:28:24.470Z,102868.38
2023-02-14T20:33:28.284Z,102885.34
2023-02-14T20:38:32.078Z,102877.37
2023-02-14T20:43:37.685Z,102875.00
2023-02-14T20:48:41.430Z,102863.78
2023-02-14T20:53:46.206Z,102853.56
2023-02-14T20:58:51.708Z,102859.56
2023-02-14T21:03:55.732Z,102846.19
2023-02-14T21:09:00.564Z,102848.81
2023-02-14T21:14:05.744Z,102844.38
2023-02-14T21:19:09.931Z,102842.72
2023-02-14T21:24:15.725Z,102837.50
2023-02-14T21:29:20.996Z,102835.44
2023-02-14T21:34:26.898Z,102825.56
2023-02-14T21:39:31.092Z,102831.19
2023-02-14T21:44:53.824Z,102828.84
2023-02-14T21:50:23.900Z,102826.97
2023-02-14T21:55:27.656Z,102832.78
2023-02-14T22:00:32.823Z,102826.31
2023-02-14T22:05:43.721Z,102813.66
2023-02-14T22:10:47.554Z,102817.50
2023-02-14T22:15:52.965Z,102810.72
2023-02-14T22:21:01.093Z,102810.44
2023-02-14T22:26:13.555Z,102815.31
2023-02-14T22:31:19.954Z,102803.00
2023-02-14T22:36:23.733Z,102791.22
2023-02-14T22:41:28.620Z,102797.13
2023-02-14T22:46:36.699Z,102804.38
2023-02-14T22:51:42.229Z,102799.13
2023-02-14T22:56:47.664Z,102797.03
2023-02-14T23:01:53.957Z,102799.03
2023-02-14T23:06:58.164Z,102799.81
2023-02-14T23:12:01.971Z,102794.53
2023-02-14T23:17:25.629Z,102791.38
2023-02-14T23:22:31.248Z,102791.09
2023-02-14T23:27:37.492Z,102790.97
2023-02-14T23:32:42.730Z,102798.44
2023-02-14T23:37:46.493Z,102800.22
2023-02-14T23:42:50.320Z,102794.81
2023-02-14T23:47:55.386Z,102804.00
2023-02-14T23:52:59.183Z,102792.84
2023-02-14T23:58:02.992Z,102790.78
